createdAt,value
2018-12-23T00:00:39.482Z,3.80
2018-12-23T00:03:11.067Z,3.10
2018-12-23T00:05:42.475Z,5.50
2018-12-23T00:08:14.080Z,3.43
2018-12-23T00:10:45.527Z,4.17
2018-12-23T00:13:17.086Z,2.63
2018-12-23T00:15:48.531Z,6.57
2018-12-23T00:18:20.181Z,3.43
2018-12-23T00:20:51.655Z,3.40
2018-12-23T00:23:23.290Z,4.33
2018-12-23T00:25:54.703Z,4.70
2018-12-23T00:28:26.064Z,2.30
2018-12-23T00:30:57.554Z,4.93
2018-12-23T00:33:29.199Z,4.30
2018-12-23T00:36:00.606Z,4.70
2018-12-23T00:38:32.196Z,8.43
2018-12-23T00:41:03.620Z,3.87
2018-12-23T00:43:35.096Z,2.23
2018-12-23T00:46:06.718Z,6.07
2018-12-23T00:48:38.217Z,3.70
2018-12-23T00:51:09.828Z,4.93
2018-12-23T00:53:41.328Z,3.10
2018-12-23T00:56:13.283Z,5.63
2018-12-23T00:58:44.704Z,2.33
2018-12-23T01:01:16.282Z,4.47
2018-12-23T01:03:47.695Z,2.00
2018-12-23T01:06:19.531Z,5.37
2018-12-23T01:08:51.326Z,3.07
2018-12-23T01:11:23.026Z,2.87
2018-12-23T01:13:54.673Z,3.30
2018-12-23T01:16:26.118Z,4.90
2018-12-23T01:18:57.667Z,6.37
2018-12-23T01:21:29.098Z,2.03
2018-12-23T01:24:00.687Z,3.57
2018-12-23T01:26:32.294Z,3.37
2018-12-23T01:29:03.795Z,4.33
2018-12-23T01:31:35.401Z,3.60
2018-12-23T01:34:06.807Z,3.80
2018-12-23T01:36:38.412Z,5.43
2018-12-23T01:39:09.912Z,4.53
2018-12-23T01:41:41.511Z,3.80
2018-12-23T01:44:13.073Z,3.47
2018-12-23T01:46:44.488Z,3.17
2018-12-23T01:49:16.023Z,6.00
2018-12-23T01:51:47.435Z,1.87
2018-12-23T01:54:19.018Z,2.73
2018-12-23T01:56:50.640Z,2.07
2018-12-23T01:59:22.138Z,2.20
2018-12-23T02:01:53.746Z,3.73
2018-12-23T02:04:25.355Z,2.80
2018-12-23T02:06:56.960Z,2.37
2018-12-23T02:09:28.471Z,3.07
2018-12-23T02:11:59.992Z,4.23
2018-12-23T02:14:31.468Z,4.03
2018-12-23T02:17:02.967Z,3.80
2018-12-23T02:19:34.466Z,2.07
2018-12-23T02:22:05.971Z,2.77
2018-12-23T02:24:37.474Z,3.10
2018-12-23T02:27:09.084Z,4.73
2018-12-23T02:29:42.371Z,2.93
2018-12-23T02:32:13.923Z,4.47
2018-12-23T02:34:45.327Z,3.40
2018-12-23T02:37:16.934Z,2.30
2018-12-23T02:39:48.448Z,4.53
2018-12-23T02:42:20.039Z,2.50
2018-12-23T02:44:51.440Z,2.40
2018-12-23T02:47:23.045Z,3.97
2018-12-23T02:49:54.551Z,4.43
2018-12-23T02:52:26.160Z,2.07
2018-12-23T02:54:57.660Z,4.03
2018-12-23T02:57:29.191Z,1.93
2018-12-23T03:00:00.862Z,2.20
2018-12-23T03:02:32.411Z,1.60
2018-12-23T03:05:03.904Z,7.43
2018-12-23T03:07:35.402Z,5.43
2018-12-23T03:10:07.139Z,7.77
2018-12-23T03:12:38.764Z,6.73
2018-12-23T03:15:10.162Z,5.03
2018-12-23T03:17:41.733Z,3.70
2018-12-23T03:20:13.343Z,4.47
2018-12-23T03:22:44.745Z,2.83
2018-12-23T03:25:16.352Z,5.43
2018-12-23T03:27:47.944Z,3.40
2018-12-23T03:30:19.563Z,3.83
2018-12-23T03:32:51.066Z,5.03
2018-12-23T03:35:22.990Z,6.00
2018-12-23T03:37:54.574Z,3.37
2018-12-23T03:40:26.136Z,4.33
2018-12-23T03:42:57.681Z,2.47
2018-12-23T03:45:29.230Z,7.57
2018-12-23T03:48:00.846Z,5.83
2018-12-23T03:50:33.502Z,6.77
2018-12-23T03:53:04.932Z,2.97
2018-12-23T03:55:36.470Z,4.67
2018-12-23T03:58:07.940Z,4.60
2018-12-23T04:00:39.550Z,1.83
2018-12-23T04:03:11.136Z,5.90
2018-12-23T04:05:42.758Z,2.30
2018-12-23T04:08:14.271Z,3.73
2018-12-23T04:10:45.958Z,3.20
2018-12-23T04:13:17.359Z,1.43
2018-12-23T04:15:48.785Z,4.17
2018-12-23T04:18:20.359Z,3.27
2018-12-23T04:20:51.762Z,1.97
2018-12-23T04:23:23.255Z,2.00
2018-12-23T04:25:54.739Z,3.33
2018-12-23T04:28:26.261Z,3.00
2018-12-23T04:30:57.879Z,3.13
2018-12-23T04:33:29.378Z,2.63
2018-12-23T04:36:00.988Z,3.43
2018-12-23T04:38:32.482Z,5.20
2018-12-23T04:41:04.036Z,5.50
2018-12-23T04:43:35.585Z,9.17
2018-12-23T04:46:07.019Z,5.73
2018-12-23T04:48:38.680Z,6.67
2018-12-23T04:51:10.102Z,6.90
2018-12-23T04:53:41.604Z,6.37
2018-12-23T04:56:13.155Z,6.37
2018-12-23T04:58:44.708Z,3.37
2018-12-23T05:01:16.115Z,5.70
2018-12-23T05:03:47.598Z,3.83
2018-12-23T05:06:19.034Z,2.80
2018-12-23T05:08:50.611Z,6.47
2018-12-23T05:11:22.231Z,2.27
2018-12-23T05:13:53.722Z,4.53
2018-12-23T05:16:25.338Z,6.17
2018-12-23T05:18:56.842Z,5.50
2018-12-23T05:21:28.447Z,4.40
2018-12-23T05:23:59.952Z,4.40
2018-12-23T05:26:31.560Z,6.50
2018-12-23T05:29:03.055Z,2.60
2018-12-23T05:31:34.662Z,5.63
2018-12-23T05:34:06.059Z,2.73
2018-12-23T05:36:37.689Z,8.40
2018-12-23T05:39:09.523Z,2.53
2018-12-23T05:41:41.115Z,6.57
2018-12-23T05:44:12.740Z,3.33
2018-12-23T05:46:44.239Z,3.77
2018-12-23T05:49:15.847Z,7.83
2018-12-23T05:51:47.358Z,4.27
2018-12-23T05:54:18.959Z,3.57
2018-12-23T05:56:50.473Z,3.50
2018-12-23T05:59:22.053Z,5.50
2018-12-23T06:01:53.562Z,7.80
2018-12-23T06:04:25.167Z,3.30
2018-12-23T06:07:01.077Z,1.97
2018-12-23T06:09:32.323Z,2.73
2018-12-23T06:12:03.867Z,2.20
2018-12-23T06:14:35.322Z,1.53
2018-12-23T06:17:06.872Z,1.20
2018-12-23T06:19:38.379Z,3.10
2018-12-23T06:22:09.833Z,3.50
2018-12-23T06:24:41.427Z,2.50
2018-12-23T06:27:12.835Z,1.53
2018-12-23T06:29:44.391Z,2.87
2018-12-23T06:32:15.842Z,3.03
2018-12-23T06:34:47.395Z,5.60
2018-12-23T06:37:18.763Z,6.27
2018-12-23T06:39:50.335Z,6.97
2018-12-23T06:42:21.898Z,5.13
2018-12-23T06:44:53.449Z,3.23
2018-12-23T06:47:25.006Z,3.37
2018-12-23T06:49:56.575Z,4.60
2018-12-23T06:52:27.970Z,11.27
2018-12-23T06:54:59.563Z,3.67
2018-12-23T06:57:31.119Z,3.03
2018-12-23T07:00:02.685Z,4.07
2018-12-23T07:02:34.082Z,3.80
2018-12-23T07:05:05.588Z,4.77
2018-12-23T07:07:36.992Z,5.07
2018-12-23T07:10:09.679Z,4.50
2018-12-23T07:12:41.116Z,4.17
2018-12-23T07:15:12.815Z,6.90
2018-12-23T07:17:44.231Z,5.13
2018-12-23T07:20:15.820Z,6.77
2018-12-23T07:22:47.440Z,5.43
2018-12-23T07:25:18.944Z,6.53
2018-12-23T07:27:50.546Z,5.37
2018-12-23T07:30:22.050Z,4.23
2018-12-23T07:32:53.656Z,5.43
2018-12-23T07:35:25.149Z,2.37
2018-12-23T07:37:56.686Z,4.00
2018-12-23T07:40:28.154Z,3.73
2018-12-23T07:42:59.704Z,5.93
2018-12-23T07:45:31.163Z,13.43
2018-12-23T07:48:02.726Z,80.70
2018-12-23T07:50:34.184Z,111.00
2018-12-23T07:53:05.776Z,65.37
2018-12-23T07:55:37.279Z,37.77
2018-12-23T07:58:08.823Z,36.23
2018-12-23T08:00:40.301Z,27.70
2018-12-23T08:03:11.897Z,18.03
2018-12-23T08:05:43.387Z,26.40
2018-12-23T08:08:14.940Z,27.17
2018-12-23T08:10:46.503Z,31.97
2018-12-23T08:13:18.249Z,36.20
2018-12-23T08:15:49.802Z,31.70
2018-12-23T08:18:21.357Z,28.30
2018-12-23T08:20:52.765Z,19.50
2018-12-23T08:23:24.360Z,18.20
2018-12-23T08:25:55.784Z,18.20
2018-12-23T08:28:27.354Z,11.73
2018-12-23T08:30:58.918Z,9.40
2018-12-23T08:33:30.463Z,8.23
2018-12-23T08:36:01.987Z,6.57
2018-12-23T08:38:33.490Z,7.47
2018-12-23T08:41:05.091Z,4.73
2018-12-23T08:43:36.604Z,9.20
2018-12-23T08:46:08.198Z,8.70
2018-12-23T08:48:39.694Z,10.07
2018-12-23T08:51:11.311Z,10.93
2018-12-23T08:53:42.810Z,7.07
2018-12-23T08:56:14.428Z,9.77
2018-12-23T08:58:45.921Z,8.43
2018-12-23T09:01:17.526Z,10.37
2018-12-23T09:03:49.021Z,8.23
2018-12-23T09:06:20.635Z,10.07
2018-12-23T09:08:52.135Z,5.50
2018-12-23T09:11:23.671Z,7.43
2018-12-23T09:13:55.135Z,3.90
2018-12-23T09:16:26.677Z,7.10
2018-12-23T09:18:58.142Z,3.90
2018-12-23T09:21:29.792Z,3.50
2018-12-23T09:24:01.348Z,7.00
2018-12-23T09:26:32.896Z,4.80
2018-12-23T09:29:04.519Z,6.40
2018-12-23T09:31:36.113Z,5.57
2018-12-23T09:34:07.722Z,3.93
2018-12-23T09:36:39.242Z,8.13
2018-12-23T09:39:10.827Z,6.33
2018-12-23T09:41:42.327Z,5.03
2018-12-23T09:44:13.940Z,9.37
2018-12-23T09:46:45.345Z,10.83
2018-12-23T09:49:16.939Z,8.57
2018-12-23T09:51:48.441Z,5.00
2018-12-23T09:54:20.050Z,3.67
2018-12-23T09:56:53.117Z,8.17
2018-12-23T09:59:24.939Z,8.80
2018-12-23T10:01:56.362Z,8.70
2018-12-23T10:04:27.952Z,4.20
2018-12-23T10:06:59.503Z,4.50
2018-12-23T10:09:31.047Z,4.23
2018-12-23T10:12:02.633Z,4.10
2018-12-23T10:14:34.071Z,9.13
2018-12-23T10:17:05.615Z,6.10
2018-12-23T10:19:37.075Z,6.13
2018-12-23T10:22:08.685Z,4.03
2018-12-23T10:24:40.085Z,19.33
2018-12-23T10:27:11.698Z,38.53
2018-12-23T10:29:43.390Z,17.97
2018-12-23T10:32:15.003Z,10.17
2018-12-23T10:34:46.496Z,7.13
2018-12-23T10:37:18.343Z,12.80
2018-12-23T10:39:49.770Z,12.07
2018-12-23T10:42:21.355Z,7.77
2018-12-23T10:44:53.017Z,6.90
2018-12-23T10:47:24.471Z,5.97
2018-12-23T10:49:56.182Z,9.47
2018-12-23T10:52:27.693Z,8.33
2018-12-23T10:54:59.292Z,7.97
2018-12-23T10:57:30.802Z,10.57
2018-12-23T11:00:02.407Z,8.30
2018-12-23T11:02:33.898Z,7.73
2018-12-23T11:05:05.406Z,8.80
2018-12-23T11:07:36.811Z,8.13
2018-12-23T11:10:09.064Z,9.50
2018-12-23T11:12:40.519Z,8.33
2018-12-23T11:15:12.183Z,12.17
2018-12-23T11:17:43.574Z,6.93
2018-12-23T11:20:14.973Z,8.20
2018-12-23T11:22:46.486Z,7.93
2018-12-23T11:25:17.981Z,10.27
2018-12-23T11:27:49.398Z,9.27
2018-12-23T11:30:20.986Z,8.77
2018-12-23T11:32:52.410Z,7.90
2018-12-23T11:35:23.991Z,5.60
2018-12-23T11:37:55.543Z,6.80
2018-12-23T11:40:27.977Z,11.10
2018-12-23T11:42:59.500Z,18.93
2018-12-23T11:45:31.244Z,6.07
2018-12-23T11:48:02.702Z,7.73
2018-12-23T11:50:34.231Z,9.03
2018-12-23T11:53:05.707Z,6.20
2018-12-23T11:55:37.255Z,5.17
2018-12-23T11:58:08.700Z,9.13
2018-12-23T12:00:40.254Z,8.43
2018-12-23T12:03:11.721Z,10.77
2018-12-23T12:05:43.255Z,9.40
2018-12-23T12:08:14.716Z,5.87
2018-12-23T12:10:46.265Z,10.27
2018-12-23T12:13:17.717Z,5.77
2018-12-23T12:15:49.262Z,10.03
2018-12-23T12:18:20.720Z,8.77
2018-12-23T12:20:52.381Z,13.13
2018-12-23T12:23:23.844Z,10.40
2018-12-23T12:25:55.377Z,7.67
2018-12-23T12:28:26.842Z,7.83
2018-12-23T12:30:58.451Z,3.97
2018-12-23T12:33:29.960Z,10.90
2018-12-23T12:36:01.357Z,8.70
2018-12-23T12:38:32.940Z,6.73
2018-12-23T12:41:04.557Z,5.57
2018-12-23T12:43:36.153Z,7.30
2018-12-23T12:46:07.707Z,5.43
2018-12-23T12:48:39.261Z,11.47
2018-12-23T12:51:10.813Z,8.70
2018-12-23T12:53:42.369Z,15.67
2018-12-23T12:56:13.917Z,10.57
2018-12-23T12:58:45.484Z,8.77
2018-12-23T13:01:17.029Z,6.30
2018-12-23T13:03:48.589Z,13.00
2018-12-23T13:06:20.136Z,8.93
2018-12-23T13:08:51.699Z,7.50
2018-12-23T13:11:23.106Z,9.30
2018-12-23T13:13:54.693Z,7.67
2018-12-23T13:16:26.163Z,9.33
2018-12-23T13:18:57.805Z,11.67
2018-12-23T13:21:29.420Z,17.30
2018-12-23T13:24:00.932Z,16.87
2018-12-23T13:26:32.565Z,11.23
2018-12-23T13:29:04.031Z,8.73
2018-12-23T13:31:35.580Z,17.40
2018-12-23T13:34:07.044Z,10.13
2018-12-23T13:36:38.575Z,11.10
2018-12-23T13:39:12.376Z,10.23
2018-12-23T13:42:03.509Z,15.40
2018-12-23T13:44:54.517Z,7.77
2018-12-23T13:49:00.384Z,15.70
2018-12-23T13:52:50.683Z,7.07
2018-12-23T13:56:34.301Z,9.07
2018-12-23T13:59:27.154Z,9.63
2018-12-23T14:05:29.219Z,11.57
2018-12-23T14:08:17.927Z,8.30
2018-12-23T14:11:59.015Z,9.00
2018-12-23T14:14:30.578Z,14.70
2018-12-23T14:17:02.019Z,12.17
2018-12-23T14:19:34.020Z,5.13
2018-12-23T14:22:05.439Z,8.63
2018-12-23T14:24:36.974Z,10.57
2018-12-23T14:27:08.439Z,8.20
2018-12-23T14:29:39.978Z,12.20
2018-12-23T14:32:11.439Z,11.20
2018-12-23T14:34:42.986Z,9.47
2018-12-23T14:37:14.539Z,16.80
2018-12-23T14:39:46.015Z,17.70
2018-12-23T14:42:17.551Z,10.77
2018-12-23T14:44:49.004Z,9.40
2018-12-23T14:47:20.654Z,5.63
2018-12-23T14:49:52.066Z,9.10
2018-12-23T14:52:23.767Z,11.63
2018-12-23T14:54:55.173Z,13.03
2018-12-23T14:57:26.774Z,10.10
2018-12-23T14:59:58.379Z,13.70
2018-12-23T15:02:29.867Z,8.57
2018-12-23T15:05:01.485Z,8.20
2018-12-23T15:07:32.994Z,7.73
2018-12-23T15:10:04.746Z,7.77
2018-12-23T15:12:36.250Z,7.07
2018-12-23T15:15:07.945Z,10.57
2018-12-23T15:17:39.366Z,5.03
2018-12-23T15:20:10.938Z,5.70
2018-12-23T15:22:42.567Z,8.93
2018-12-23T15:25:13.975Z,6.13
2018-12-23T15:27:45.577Z,4.93
2018-12-23T15:30:17.090Z,9.90
2018-12-23T15:32:48.687Z,8.37
2018-12-23T15:35:20.205Z,6.70
2018-12-23T15:37:51.791Z,8.93
2018-12-23T15:40:23.302Z,7.57
2018-12-23T15:42:54.904Z,5.17
2018-12-23T15:45:26.375Z,5.30
2018-12-23T15:47:57.799Z,6.77
2018-12-23T15:50:29.292Z,5.03
2018-12-23T15:53:00.766Z,7.30
2018-12-23T15:55:32.300Z,5.67
2018-12-23T15:58:03.758Z,6.90
2018-12-23T16:00:35.319Z,7.07
2018-12-23T16:03:06.767Z,3.73
2018-12-23T16:05:38.372Z,6.57
2018-12-23T16:08:09.857Z,7.77
2018-12-23T16:10:41.427Z,5.97
2018-12-23T16:13:12.981Z,6.43
2018-12-23T16:15:44.631Z,8.97
2018-12-23T16:18:16.135Z,5.97
2018-12-23T16:20:47.752Z,7.60
2018-12-23T16:23:19.144Z,9.33
2018-12-23T16:25:50.646Z,5.20
2018-12-23T16:28:22.045Z,9.43
2018-12-23T16:30:53.552Z,8.10
2018-12-23T16:33:25.019Z,12.77
2018-12-23T16:35:56.616Z,8.40
2018-12-23T16:38:28.127Z,13.10
2018-12-23T16:40:59.650Z,13.37
2018-12-23T16:43:31.111Z,8.37
2018-12-23T16:46:02.668Z,16.23
2018-12-23T16:48:34.114Z,11.93
2018-12-23T16:51:05.730Z,8.07
2018-12-23T16:53:37.228Z,7.80
2018-12-23T16:56:08.827Z,9.53
2018-12-23T16:58:40.325Z,4.57
2018-12-23T17:01:11.750Z,5.73
2018-12-23T17:03:43.318Z,8.83
2018-12-23T17:06:14.742Z,8.93
2018-12-23T17:08:46.226Z,6.20
2018-12-23T17:11:17.661Z,8.83
2018-12-23T17:13:49.248Z,8.23
2018-12-23T17:16:20.675Z,4.77
2018-12-23T17:18:52.238Z,5.47
2018-12-23T17:21:23.863Z,5.77
2018-12-23T17:23:55.457Z,5.33
2018-12-23T17:26:26.876Z,5.13
2018-12-23T17:28:58.464Z,6.17
2018-12-23T17:31:30.080Z,5.67
2018-12-23T17:34:01.587Z,4.70
2018-12-23T17:36:32.996Z,5.57
2018-12-23T17:39:06.129Z,5.33
2018-12-23T17:41:37.521Z,5.87
2018-12-23T17:44:09.120Z,4.40
2018-12-23T17:46:40.673Z,8.57
2018-12-23T17:49:12.226Z,5.37
2018-12-23T17:51:43.679Z,4.93
2018-12-23T17:54:15.311Z,6.67
2018-12-23T17:56:46.751Z,7.37
2018-12-23T17:59:18.357Z,34.63
2018-12-23T18:01:49.908Z,19.20
2018-12-23T18:04:21.369Z,13.73
2018-12-23T18:06:52.902Z,18.23
2018-12-23T18:09:24.352Z,7.60
2018-12-23T18:11:55.934Z,6.33
2018-12-23T18:14:27.784Z,3.43
2018-12-23T18:16:59.325Z,3.90
2018-12-23T18:19:30.976Z,4.10
2018-12-23T18:22:02.531Z,4.63
2018-12-23T18:24:33.944Z,2.10
2018-12-23T18:27:05.545Z,5.23
2018-12-23T18:29:37.142Z,4.30
2018-12-23T18:32:08.649Z,3.60
2018-12-23T18:34:40.255Z,4.17
2018-12-23T18:37:11.760Z,4.93
2018-12-23T18:40:33.492Z,3.73
2018-12-23T18:43:22.724Z,3.73
2018-12-23T18:45:55.071Z,7.27
2018-12-23T18:48:27.280Z,4.47
2018-12-23T18:50:59.490Z,2.83
2018-12-23T18:53:31.679Z,2.00
2018-12-23T18:56:03.889Z,3.30
2018-12-23T18:58:36.084Z,4.23
2018-12-23T19:01:08.997Z,3.20
2018-12-23T19:03:41.554Z,5.13
2018-12-23T19:06:14.336Z,4.20
2018-12-23T19:09:13.134Z,2.60
2018-12-23T19:12:45.777Z,4.07
2018-12-23T19:16:34.326Z,4.87
2018-12-23T19:20:21.400Z,1.63
2018-12-23T19:24:00.077Z,3.87
2018-12-23T19:27:34.465Z,2.10
2018-12-23T19:31:02.508Z,3.30
2018-12-23T19:34:15.373Z,2.53
2018-12-23T19:38:07.589Z,5.80
2018-12-23T19:41:52.646Z,4.13
2018-12-23T19:45:36.921Z,5.27
2018-12-23T19:48:59.637Z,7.87
2018-12-23T19:52:21.814Z,6.40
2018-12-23T19:55:50.964Z,8.83
2018-12-23T19:59:45.239Z,4.93
2018-12-23T20:03:00.471Z,5.30
2018-12-23T20:06:45.821Z,3.53
2018-12-23T20:10:20.963Z,3.13
2018-12-23T20:14:04.784Z,5.03
2018-12-23T20:17:30.020Z,7.43
2018-12-23T20:21:00.745Z,4.57
2018-12-23T20:24:38.041Z,8.47
2018-12-23T20:28:12.842Z,8.57
2018-12-23T20:31:50.827Z,7.60
2018-12-23T20:35:18.640Z,5.53
2018-12-23T20:38:39.133Z,6.33
2018-12-23T20:42:46.551Z,4.13
2018-12-23T20:46:31.823Z,3.67
2018-12-23T20:50:15.238Z,3.27
2018-12-23T20:53:22.076Z,6.13
2018-12-23T20:56:40.561Z,6.30
2018-12-23T21:00:15.022Z,3.70
2018-12-23T21:04:04.470Z,5.70
2018-12-23T21:07:51.187Z,3.30
2018-12-23T21:11:35.462Z,3.33
2018-12-23T21:15:14.826Z,3.93
2018-12-23T21:19:10.883Z,2.10
2018-12-23T21:22:17.728Z,2.00
2018-12-23T21:26:04.112Z,2.58
2018-12-23T21:29:56.716Z,2.77
2018-12-23T21:33:25.565Z,7.03
2018-12-23T21:36:37.986Z,7.03
2018-12-23T21:40:14.007Z,10.37
2018-12-23T21:43:48.764Z,3.37
2018-12-23T21:47:44.481Z,1.83
2018-12-23T21:51:40.058Z,3.00
2018-12-23T21:54:58.487Z,2.10
2018-12-23T21:58:36.134Z,2.13
2018-12-23T22:02:11.215Z,1.83
2018-12-23T22:05:44.540Z,1.70
2018-12-23T22:09:11.909Z,1.30
2018-12-23T22:12:53.076Z,1.07
2018-12-23T22:15:25.454Z,0.90
2018-12-23T22:17:57.857Z,1.17
2018-12-23T22:20:30.534Z,0.70
2018-12-23T22:23:03.605Z,1.53
2018-12-23T22:25:36.240Z,0.90
2018-12-23T22:28:08.579Z,1.30
2018-12-23T22:30:40.900Z,1.03
2018-12-23T22:33:13.109Z,0.60
2018-12-23T22:35:45.319Z,0.90
2018-12-23T22:38:17.519Z,1.10
2018-12-23T22:41:01.525Z,0.63
2018-12-23T22:43:33.872Z,0.80
2018-12-23T22:46:06.348Z,2.30
2018-12-23T22:48:39.177Z,0.70
2018-12-23T22:51:11.652Z,0.70
2018-12-23T22:53:44.115Z,0.60
2018-12-23T22:56:16.494Z,0.83
2018-12-23T22:58:50.397Z,0.50
2018-12-23T23:01:23.989Z,0.60
2018-12-23T23:03:56.361Z,0.50
2018-12-23T23:06:28.730Z,0.87
2018-12-23T23:09:01.095Z,0.50
2018-12-23T23:11:33.462Z,0.60
2018-12-23T23:14:05.835Z,1.00
2018-12-23T23:16:38.221Z,0.67
2018-12-23T23:19:10.584Z,0.87
2018-12-23T23:21:42.965Z,0.60
2018-12-23T23:24:15.320Z,0.50
2018-12-23T23:26:47.737Z,0.50
2018-12-23T23:29:20.109Z,0.40
2018-12-23T23:31:52.480Z,0.87
2018-12-23T23:34:24.952Z,0.93
2018-12-23T23:36:57.322Z,0.70
2018-12-23T23:39:29.687Z,1.00
2018-12-23T23:42:02.053Z,1.67
2018-12-23T23:44:34.435Z,0.70
2018-12-23T23:47:06.905Z,0.30
2018-12-23T23:49:39.262Z,0.20
2018-12-23T23:52:11.735Z,0.73
2018-12-23T23:54:44.095Z,0.20
2018-12-23T23:57:16.476Z,2.10
2018-12-23T23:59:48.829Z,0.43
